Terminal Aerodrome Forecast
Issued by NWS Knoxville/Tri Cities, TN

Home | Current Version | Previous Version | Text Only | Print | Product List | Glossary On
Versions: 1 2 3 4 5 6 7 8 9 10 11 12 13 14 15 16 17 18 19 20 21 22 23 24 25 26 27 28 29 30 31 32 33 34 35 36 37 38 39 40 41 42
000
FTUS44 KMRX 022325
TAFTYS
TAF
KTYS 022325Z 0300/0324 23010KT P6SM VCSH SCT020 BKN100
     FM030300 22008KT P6SM VCTS BKN035CB OVC080
     FM030600 23008KT 6SM -SHRA BR VCTS SCT010 BKN020CB
     FM031600 23010KT P6SM VCTS SCT015CB BKN035
     FM032100 23013G30KT P6SM VCSH SCT025 BKN045=

USA.gov is the U.S. government's official web portal to all federal, state and local government web resources and services.